sensor_id;sensor_type;location;lat;lon;timestamp;P1;durP1;ratioP1;P2;durP2;ratioP2
23230;SDS011;11784;49.818;8.632;2022-08-19T00:01:18;8.95;;;4.07;;
23230;SDS011;11784;49.818;8.632;2022-08-19T00:03:45;6.50;;;3.72;;
23230;SDS011;11784;49.818;8.632;2022-08-19T00:06:11;6.72;;;3.42;;
23230;SDS011;11784;49.818;8.632;2022-08-19T00:08:36;7.70;;;3.70;;
23230;SDS011;11784;49.818;8.632;2022-08-19T00:11:02;6.70;;;3.53;;
23230;SDS011;11784;49.818;8.632;2022-08-19T00:13:28;6.53;;;3.35;;
23230;SDS011;11784;49.818;8.632;2022-08-19T00:15:54;7.05;;;3.88;;
23230;SDS011;11784;49.818;8.632;2022-08-19T00:18:20;6.68;;;4.00;;
23230;SDS011;11784;49.818;8.632;2022-08-19T00:20:46;6.82;;;4.07;;
23230;SDS011;11784;49.818;8.632;2022-08-19T00:23:11;7.30;;;4.15;;
23230;SDS011;11784;49.818;8.632;2022-08-19T00:25:36;6.30;;;3.50;;
23230;SDS011;11784;49.818;8.632;2022-08-19T00:28:03;7.90;;;4.28;;
23230;SDS011;11784;49.818;8.632;2022-08-19T00:30:29;8.50;;;3.95;;
23230;SDS011;11784;49.818;8.632;2022-08-19T00:32:55;7.90;;;4.25;;
23230;SDS011;11784;49.818;8.632;2022-08-19T00:35:21;8.10;;;4.93;;
23230;SDS011;11784;49.818;8.632;2022-08-19T00:37:49;8.23;;;3.90;;
23230;SDS011;11784;49.818;8.632;2022-08-19T00:40:17;7.68;;;4.15;;
23230;SDS011;11784;49.818;8.632;2022-08-19T00:42:44;10.63;;;4.32;;
23230;SDS011;11784;49.818;8.632;2022-08-19T00:45:20;6.35;;;3.60;;
23230;SDS011;11784;49.818;8.632;2022-08-19T00:47:47;5.40;;;3.10;;
23230;SDS011;11784;49.818;8.632;2022-08-19T00:50:14;7.03;;;4.93;;
23230;SDS011;11784;49.818;8.632;2022-08-19T00:52:44;5.72;;;4.15;;
23230;SDS011;11784;49.818;8.632;2022-08-19T00:55:14;6.93;;;3.93;;
23230;SDS011;11784;49.818;8.632;2022-08-19T00:57:44;6.10;;;3.65;;
23230;SDS011;11784;49.818;8.632;2022-08-19T01:00:16;9.35;;;3.60;;
23230;SDS011;11784;49.818;8.632;2022-08-19T01:02:43;8.63;;;3.80;;
23230;SDS011;11784;49.818;8.632;2022-08-19T01:05:14;9.18;;;4.43;;
23230;SDS011;11784;49.818;8.632;2022-08-19T01:07:43;6.53;;;3.35;;
23230;SDS011;11784;49.818;8.632;2022-08-19T01:10:10;9.15;;;4.18;;
23230;SDS011;11784;49.818;8.632;2022-08-19T01:12:38;6.60;;;3.72;;
23230;SDS011;11784;49.818;8.632;2022-08-19T01:15:05;8.20;;;4.18;;
23230;SDS011;11784;49.818;8.632;2022-08-19T01:17:33;7.47;;;4.00;;
23230;SDS011;11784;49.818;8.632;2022-08-19T01:20:01;6.60;;;3.70;;
23230;SDS011;11784;49.818;8.632;2022-08-19T01:22:32;6.75;;;3.95;;
23230;SDS011;11784;49.818;8.632;2022-08-19T01:25:07;6.47;;;3.75;;
23230;SDS011;11784;49.818;8.632;2022-08-19T01:27:37;6.32;;;3.75;;
23230;SDS011;11784;49.818;8.632;2022-08-19T01:30:07;7.53;;;3.67;;
23230;SDS011;11784;49.818;8.632;2022-08-19T01:32:33;9.88;;;3.65;;
23230;SDS011;11784;49.818;8.632;2022-08-19T01:35:00;7.03;;;4.10;;
23230;SDS011;11784;49.818;8.632;2022-08-19T01:37:28;7.30;;;4.28;;
23230;SDS011;11784;49.818;8.632;2022-08-19T01:39:55;7.03;;;4.28;;
23230;SDS011;11784;49.818;8.632;2022-08-19T01:42:21;7.82;;;4.32;;
23230;SDS011;11784;49.818;8.632;2022-08-19T01:44:47;6.60;;;3.47;;
23230;SDS011;11784;49.818;8.632;2022-08-19T01:47:12;9.05;;;3.95;;
23230;SDS011;11784;49.818;8.632;2022-08-19T01:49:38;7.80;;;4.32;;
23230;SDS011;11784;49.818;8.632;2022-08-19T01:52:04;6.30;;;3.65;;
23230;SDS011;11784;49.818;8.632;2022-08-19T01:54:30;7.70;;;3.53;;
23230;SDS011;11784;49.818;8.632;2022-08-19T01:57:02;10.25;;;4.32;;
23230;SDS011;11784;49.818;8.632;2022-08-19T01:59:37;6.90;;;3.90;;
23230;SDS011;11784;49.818;8.632;2022-08-19T02:02:06;8.65;;;3.83;;
23230;SDS011;11784;49.818;8.632;2022-08-19T02:04:35;6.05;;;3.90;;
23230;SDS011;11784;49.818;8.632;2022-08-19T02:07:04;8.10;;;4.28;;
23230;SDS011;11784;49.818;8.632;2022-08-19T02:09:31;7.75;;;3.85;;
23230;SDS011;11784;49.818;8.632;2022-08-19T02:11:57;5.85;;;3.53;;
23230;SDS011;11784;49.818;8.632;2022-08-19T02:14:23;6.35;;;3.88;;
23230;SDS011;11784;49.818;8.632;2022-08-19T02:16:49;6.45;;;3.58;;
23230;SDS011;11784;49.818;8.632;2022-08-19T02:19:14;5.97;;;3.42;;
23230;SDS011;11784;49.818;8.632;2022-08-19T02:21:40;8.30;;;3.97;;
23230;SDS011;11784;49.818;8.632;2022-08-19T02:24:05;7.32;;;3.85;;
23230;SDS011;11784;49.818;8.632;2022-08-19T02:26:31;8.82;;;4.55;;
23230;SDS011;11784;49.818;8.632;2022-08-19T02:28:57;7.25;;;3.67;;
23230;SDS011;11784;49.818;8.632;2022-08-19T02:31:24;6.53;;;3.40;;
23230;SDS011;11784;49.818;8.632;2022-08-19T02:33:50;6.53;;;3.50;;
23230;SDS011;11784;49.818;8.632;2022-08-19T02:36:20;6.63;;;4.20;;
23230;SDS011;11784;49.818;8.632;2022-08-19T02:38:46;8.32;;;4.75;;
23230;SDS011;11784;49.818;8.632;2022-08-19T02:41:13;9.07;;;4.35;;
23230;SDS011;11784;49.818;8.632;2022-08-19T02:43:44;8.25;;;4.47;;
23230;SDS011;11784;49.818;8.632;2022-08-19T02:46:14;8.55;;;4.72;;
23230;SDS011;11784;49.818;8.632;2022-08-19T02:48:45;6.57;;;3.90;;
23230;SDS011;11784;49.818;8.632;2022-08-19T02:51:19;9.77;;;4.43;;
23230;SDS011;11784;49.818;8.632;2022-08-19T02:53:46;6.80;;;4.13;;
23230;SDS011;11784;49.818;8.632;2022-08-19T02:56:15;6.30;;;3.63;;
23230;SDS011;11784;49.818;8.632;2022-08-19T02:58:41;6.85;;;3.40;;
23230;SDS011;11784;49.818;8.632;2022-08-19T03:01:08;8.63;;;3.83;;
23230;SDS011;11784;49.818;8.632;2022-08-19T03:03:35;8.65;;;3.58;;
23230;SDS011;11784;49.818;8.632;2022-08-19T03:06:02;7.07;;;3.85;;
23230;SDS011;11784;49.818;8.632;2022-08-19T03:10:58;8.45;;;3.75;;
23230;SDS011;11784;49.818;8.632;2022-08-19T03:13:24;8.40;;;4.65;;
23230;SDS011;11784;49.818;8.632;2022-08-19T03:15:49;6.68;;;4.00;;
23230;SDS011;11784;49.818;8.632;2022-08-19T03:18:15;6.50;;;4.28;;
23230;SDS011;11784;49.818;8.632;2022-08-19T03:20:45;7.68;;;3.67;;
23230;SDS011;11784;49.818;8.632;2022-08-19T03:23:13;6.75;;;3.80;;
23230;SDS011;11784;49.818;8.632;2022-08-19T03:25:41;6.45;;;3.20;;
23230;SDS011;11784;49.818;8.632;2022-08-19T03:28:10;6.55;;;3.80;;
23230;SDS011;11784;49.818;8.632;2022-08-19T03:30:36;8.10;;;4.55;;
23230;SDS011;11784;49.818;8.632;2022-08-19T03:33:04;7.32;;;4.22;;
23230;SDS011;11784;49.818;8.632;2022-08-19T03:35:30;8.95;;;4.45;;
23230;SDS011;11784;49.818;8.632;2022-08-19T03:37:55;8.70;;;3.85;;
23230;SDS011;11784;49.818;8.632;2022-08-19T03:40:23;6.65;;;4.07;;
23230;SDS011;11784;49.818;8.632;2022-08-19T03:42:50;7.38;;;4.30;;
23230;SDS011;11784;49.818;8.632;2022-08-19T03:45:15;8.10;;;4.43;;
23230;SDS011;11784;49.818;8.632;2022-08-19T03:47:41;5.97;;;3.75;;
23230;SDS011;11784;49.818;8.632;2022-08-19T03:50:06;5.90;;;3.35;;
23230;SDS011;11784;49.818;8.632;2022-08-19T03:52:33;6.90;;;3.55;;
23230;SDS011;11784;49.818;8.632;2022-08-19T03:54:59;6.85;;;3.97;;
23230;SDS011;11784;49.818;8.632;2022-08-19T03:57:24;8.45;;;3.70;;
23230;SDS011;11784;49.818;8.632;2022-08-19T03:59:50;10.10;;;3.90;;
23230;SDS011;11784;49.818;8.632;2022-08-19T04:02:15;7.90;;;3.88;;
23230;SDS011;11784;49.818;8.632;2022-08-19T04:04:42;7.43;;;4.38;;
23230;SDS011;11784;49.818;8.632;2022-08-19T04:07:08;9.38;;;4.78;;
23230;SDS011;11784;49.818;8.632;2022-08-19T04:09:35;7.38;;;4.25;;
23230;SDS011;11784;49.818;8.632;2022-08-19T04:12:03;7.72;;;3.83;;
23230;SDS011;11784;49.818;8.632;2022-08-19T04:14:31;7.45;;;4.18;;
23230;SDS011;11784;49.818;8.632;2022-08-19T04:16:57;6.65;;;3.67;;
23230;SDS011;11784;49.818;8.632;2022-08-19T04:19:23;7.03;;;3.75;;
23230;SDS011;11784;49.818;8.632;2022-08-19T04:21:50;7.13;;;4.05;;
23230;SDS011;11784;49.818;8.632;2022-08-19T04:24:17;4.57;;;2.92;;
23230;SDS011;11784;49.818;8.632;2022-08-19T04:26:44;7.15;;;4.22;;
23230;SDS011;11784;49.818;8.632;2022-08-19T04:29:12;5.57;;;3.63;;
23230;SDS011;11784;49.818;8.632;2022-08-19T04:31:40;6.55;;;3.38;;
23230;SDS011;11784;49.818;8.632;2022-08-19T04:34:07;5.95;;;3.40;;
23230;SDS011;11784;49.818;8.632;2022-08-19T04:36:36;7.65;;;3.95;;
23230;SDS011;11784;49.818;8.632;2022-08-19T04:39:04;6.40;;;3.53;;
23230;SDS011;11784;49.818;8.632;2022-08-19T04:41:31;6.03;;;3.85;;
23230;SDS011;11784;49.818;8.632;2022-08-19T04:44:16;7.53;;;4.03;;
23230;SDS011;11784;49.818;8.632;2022-08-19T04:46:48;7.45;;;3.70;;
23230;SDS011;11784;49.818;8.632;2022-08-19T04:49:15;6.68;;;3.75;;
23230;SDS011;11784;49.818;8.632;2022-08-19T04:51:43;8.05;;;4.10;;
23230;SDS011;11784;49.818;8.632;2022-08-19T04:54:10;7.70;;;3.92;;
23230;SDS011;11784;49.818;8.632;2022-08-19T04:56:36;6.50;;;3.13;;
23230;SDS011;11784;49.818;8.632;2022-08-19T04:59:02;5.95;;;3.55;;
23230;SDS011;11784;49.818;8.632;2022-08-19T05:01:29;10.38;;;3.97;;
23230;SDS011;11784;49.818;8.632;2022-08-19T05:03:57;7.07;;;3.97;;
23230;SDS011;11784;49.818;8.632;2022-08-19T05:06:25;5.15;;;3.50;;
23230;SDS011;11784;49.818;8.632;2022-08-19T05:08:50;6.65;;;4.07;;
23230;SDS011;11784;49.818;8.632;2022-08-19T05:11:18;6.47;;;3.90;;
23230;SDS011;11784;49.818;8.632;2022-08-19T05:13:46;6.15;;;3.85;;
23230;SDS011;11784;49.818;8.632;2022-08-19T05:16:14;8.52;;;4.28;;
23230;SDS011;11784;49.818;8.632;2022-08-19T05:18:41;7.03;;;3.65;;
23230;SDS011;11784;49.818;8.632;2022-08-19T05:21:25;6.68;;;3.40;;
23230;SDS011;11784;49.818;8.632;2022-08-19T05:24:10;8.60;;;3.75;;
23230;SDS011;11784;49.818;8.632;2022-08-19T05:26:38;10.50;;;5.00;;
23230;SDS011;11784;49.818;8.632;2022-08-19T05:29:05;7.90;;;3.72;;
23230;SDS011;11784;49.818;8.632;2022-08-19T05:31:33;6.05;;;3.50;;
23230;SDS011;11784;49.818;8.632;2022-08-19T05:34:00;7.00;;;3.65;;
23230;SDS011;11784;49.818;8.632;2022-08-19T05:36:26;7.47;;;3.60;;
23230;SDS011;11784;49.818;8.632;2022-08-19T05:38:53;9.57;;;4.15;;
23230;SDS011;11784;49.818;8.632;2022-08-19T05:41:21;6.28;;;3.75;;
23230;SDS011;11784;49.818;8.632;2022-08-19T05:43:54;7.32;;;4.03;;
23230;SDS011;11784;49.818;8.632;2022-08-19T05:46:20;8.02;;;4.35;;
23230;SDS011;11784;49.818;8.632;2022-08-19T05:48:47;6.45;;;4.05;;
23230;SDS011;11784;49.818;8.632;2022-08-19T05:51:14;8.00;;;3.60;;
23230;SDS011;11784;49.818;8.632;2022-08-19T05:53:41;8.73;;;4.68;;
23230;SDS011;11784;49.818;8.632;2022-08-19T05:56:08;8.80;;;4.05;;
23230;SDS011;11784;49.818;8.632;2022-08-19T05:58:36;7.88;;;4.00;;
23230;SDS011;11784;49.818;8.632;2022-08-19T06:01:02;7.75;;;4.47;;
23230;SDS011;11784;49.818;8.632;2022-08-19T06:03:33;8.48;;;4.32;;
23230;SDS011;11784;49.818;8.632;2022-08-19T06:05:59;9.77;;;4.65;;
23230;SDS011;11784;49.818;8.632;2022-08-19T06:08:25;7.57;;;3.88;;
23230;SDS011;11784;49.818;8.632;2022-08-19T06:10:52;8.13;;;4.38;;
23230;SDS011;11784;49.818;8.632;2022-08-19T06:13:18;7.50;;;4.10;;
23230;SDS011;11784;49.818;8.632;2022-08-19T06:15:44;7.05;;;4.07;;
23230;SDS011;11784;49.818;8.632;2022-08-19T06:18:11;9.55;;;5.20;;
23230;SDS011;11784;49.818;8.632;2022-08-19T06:20:37;7.20;;;4.18;;
23230;SDS011;11784;49.818;8.632;2022-08-19T06:23:03;6.03;;;3.70;;
23230;SDS011;11784;49.818;8.632;2022-08-19T06:25:28;8.02;;;4.40;;
23230;SDS011;11784;49.818;8.632;2022-08-19T06:27:54;7.63;;;4.18;;
23230;SDS011;11784;49.818;8.632;2022-08-19T06:30:20;5.32;;;3.30;;
23230;SDS011;11784;49.818;8.632;2022-08-19T06:32:45;12.57;;;4.28;;
23230;SDS011;11784;49.818;8.632;2022-08-19T06:35:11;8.02;;;3.65;;
23230;SDS011;11784;49.818;8.632;2022-08-19T06:37:38;7.15;;;3.58;;
23230;SDS011;11784;49.818;8.632;2022-08-19T06:40:03;10.13;;;4.10;;
23230;SDS011;11784;49.818;8.632;2022-08-19T06:42:30;6.85;;;4.05;;
23230;SDS011;11784;49.818;8.632;2022-08-19T06:44:56;7.53;;;3.85;;
23230;SDS011;11784;49.818;8.632;2022-08-19T06:47:22;6.22;;;3.35;;
23230;SDS011;11784;49.818;8.632;2022-08-19T06:49:48;8.40;;;3.55;;
23230;SDS011;11784;49.818;8.632;2022-08-19T06:52:14;6.07;;;3.72;;
23230;SDS011;11784;49.818;8.632;2022-08-19T06:54:41;10.70;;;3.92;;
23230;SDS011;11784;49.818;8.632;2022-08-19T06:57:07;4.43;;;2.90;;
23230;SDS011;11784;49.818;8.632;2022-08-19T07:02:05;6.38;;;3.85;;
23230;SDS011;11784;49.818;8.632;2022-08-19T07:04:31;6.70;;;3.22;;
23230;SDS011;11784;49.818;8.632;2022-08-19T07:07:04;6.80;;;3.20;;
23230;SDS011;11784;49.818;8.632;2022-08-19T07:09:34;4.60;;;2.70;;
23230;SDS011;11784;49.818;8.632;2022-08-19T07:12:02;4.68;;;2.35;;
23230;SDS011;11784;49.818;8.632;2022-08-19T07:14:28;8.25;;;2.83;;
23230;SDS011;11784;49.818;8.632;2022-08-19T07:16:55;3.80;;;2.15;;
23230;SDS011;11784;49.818;8.632;2022-08-19T07:19:22;3.45;;;2.15;;
23230;SDS011;11784;49.818;8.632;2022-08-19T07:21:52;5.63;;;2.30;;
23230;SDS011;11784;49.818;8.632;2022-08-19T07:24:19;2.45;;;1.70;;
23230;SDS011;11784;49.818;8.632;2022-08-19T07:26:46;6.18;;;2.10;;
23230;SDS011;11784;49.818;8.632;2022-08-19T07:29:11;5.65;;;2.55;;
23230;SDS011;11784;49.818;8.632;2022-08-19T07:31:38;3.88;;;2.00;;
23230;SDS011;11784;49.818;8.632;2022-08-19T07:34:05;3.78;;;1.92;;
23230;SDS011;11784;49.818;8.632;2022-08-19T07:36:32;4.45;;;2.08;;
23230;SDS011;11784;49.818;8.632;2022-08-19T07:39:00;3.42;;;1.98;;
23230;SDS011;11784;49.818;8.632;2022-08-19T07:41:29;3.92;;;1.80;;
23230;SDS011;11784;49.818;8.632;2022-08-19T07:43:55;4.00;;;2.13;;
23230;SDS011;11784;49.818;8.632;2022-08-19T07:46:21;6.28;;;2.90;;
23230;SDS011;11784;49.818;8.632;2022-08-19T07:48:47;5.55;;;2.80;;
23230;SDS011;11784;49.818;8.632;2022-08-19T07:51:17;3.55;;;2.35;;
23230;SDS011;11784;49.818;8.632;2022-08-19T07:53:46;4.28;;;2.45;;
23230;SDS011;11784;49.818;8.632;2022-08-19T07:56:13;3.15;;;1.98;;
23230;SDS011;11784;49.818;8.632;2022-08-19T07:58:43;4.10;;;1.80;;
23230;SDS011;11784;49.818;8.632;2022-08-19T08:01:11;4.18;;;2.22;;
23230;SDS011;11784;49.818;8.632;2022-08-19T08:03:39;4.55;;;2.05;;
23230;SDS011;11784;49.818;8.632;2022-08-19T08:06:23;2.90;;;1.45;;
23230;SDS011;11784;49.818;8.632;2022-08-19T08:09:07;3.95;;;2.35;;
23230;SDS011;11784;49.818;8.632;2022-08-19T08:11:36;3.25;;;1.70;;
23230;SDS011;11784;49.818;8.632;2022-08-19T08:14:07;5.35;;;2.15;;
23230;SDS011;11784;49.818;8.632;2022-08-19T08:16:35;3.70;;;1.92;;
23230;SDS011;11784;49.818;8.632;2022-08-19T08:19:03;5.30;;;2.20;;
23230;SDS011;11784;49.818;8.632;2022-08-19T08:21:31;4.32;;;1.98;;
23230;SDS011;11784;49.818;8.632;2022-08-19T08:23:57;3.53;;;1.90;;
23230;SDS011;11784;49.818;8.632;2022-08-19T08:26:23;4.10;;;2.33;;
23230;SDS011;11784;49.818;8.632;2022-08-19T08:28:48;5.03;;;1.80;;
23230;SDS011;11784;49.818;8.632;2022-08-19T08:31:14;3.13;;;1.98;;
23230;SDS011;11784;49.818;8.632;2022-08-19T08:33:40;3.85;;;2.10;;
23230;SDS011;11784;49.818;8.632;2022-08-19T08:36:07;3.70;;;1.63;;
23230;SDS011;11784;49.818;8.632;2022-08-19T08:38:33;3.53;;;1.58;;
23230;SDS011;11784;49.818;8.632;2022-08-19T08:41:04;4.80;;;2.10;;
23230;SDS011;11784;49.818;8.632;2022-08-19T08:43:44;2.58;;;1.80;;
23230;SDS011;11784;49.818;8.632;2022-08-19T08:46:15;1.98;;;1.40;;
23230;SDS011;11784;49.818;8.632;2022-08-19T08:51:20;3.03;;;1.60;;
23230;SDS011;11784;49.818;8.632;2022-08-19T08:53:52;2.70;;;1.50;;
23230;SDS011;11784;49.818;8.632;2022-08-19T08:56:18;4.03;;;1.23;;
23230;SDS011;11784;49.818;8.632;2022-08-19T08:58:47;3.13;;;1.60;;
23230;SDS011;11784;49.818;8.632;2022-08-19T09:01:26;4.60;;;1.65;;
23230;SDS011;11784;49.818;8.632;2022-08-19T09:03:52;2.50;;;1.23;;
23230;SDS011;11784;49.818;8.632;2022-08-19T09:06:25;2.47;;;1.35;;
23230;SDS011;11784;49.818;8.632;2022-08-19T09:09:09;2.00;;;1.13;;
23230;SDS011;11784;49.818;8.632;2022-08-19T09:14:34;1.38;;;1.13;;
23230;SDS011;11784;49.818;8.632;2022-08-19T09:17:01;3.17;;;1.63;;
23230;SDS011;11784;49.818;8.632;2022-08-19T09:19:28;2.33;;;1.52;;
23230;SDS011;11784;49.818;8.632;2022-08-19T09:21:55;2.10;;;1.15;;
23230;SDS011;11784;49.818;8.632;2022-08-19T09:24:25;2.90;;;1.52;;
23230;SDS011;11784;49.818;8.632;2022-08-19T09:26:50;2.13;;;1.27;;
23230;SDS011;11784;49.818;8.632;2022-08-19T09:29:16;3.88;;;1.73;;
23230;SDS011;11784;49.818;8.632;2022-08-19T09:31:41;3.03;;;1.35;;
23230;SDS011;11784;49.818;8.632;2022-08-19T09:34:07;4.50;;;1.60;;
23230;SDS011;11784;49.818;8.632;2022-08-19T09:36:33;2.25;;;1.30;;
23230;SDS011;11784;49.818;8.632;2022-08-19T09:39:02;1.73;;;1.30;;
23230;SDS011;11784;49.818;8.632;2022-08-19T09:41:29;2.70;;;1.30;;
23230;SDS011;11784;49.818;8.632;2022-08-19T09:43:55;3.67;;;1.60;;
23230;SDS011;11784;49.818;8.632;2022-08-19T09:46:22;2.33;;;1.52;;
23230;SDS011;11784;49.818;8.632;2022-08-19T09:48:50;4.50;;;1.40;;
23230;SDS011;11784;49.818;8.632;2022-08-19T09:51:18;2.60;;;1.65;;
23230;SDS011;11784;49.818;8.632;2022-08-19T09:53:46;2.47;;;1.50;;
23230;SDS011;11784;49.818;8.632;2022-08-19T09:56:15;3.53;;;2.13;;
23230;SDS011;11784;49.818;8.632;2022-08-19T09:58:46;4.45;;;1.83;;
23230;SDS011;11784;49.818;8.632;2022-08-19T10:01:16;2.75;;;1.70;;
23230;SDS011;11784;49.818;8.632;2022-08-19T10:03:46;2.17;;;1.50;;
23230;SDS011;11784;49.818;8.632;2022-08-19T10:06:13;5.00;;;1.90;;
23230;SDS011;11784;49.818;8.632;2022-08-19T10:08:39;2.55;;;1.52;;
23230;SDS011;11784;49.818;8.632;2022-08-19T10:11:04;2.25;;;1.60;;
23230;SDS011;11784;49.818;8.632;2022-08-19T10:13:30;2.53;;;1.60;;
23230;SDS011;11784;49.818;8.632;2022-08-19T10:16:03;3.58;;;2.15;;
23230;SDS011;11784;49.818;8.632;2022-08-19T10:18:31;2.25;;;1.70;;
23230;SDS011;11784;49.818;8.632;2022-08-19T10:21:03;5.28;;;2.30;;
23230;SDS011;11784;49.818;8.632;2022-08-19T10:23:39;7.10;;;2.10;;
23230;SDS011;11784;49.818;8.632;2022-08-19T10:28:35;3.85;;;1.83;;
23230;SDS011;11784;49.818;8.632;2022-08-19T10:31:05;2.65;;;1.83;;
23230;SDS011;11784;49.818;8.632;2022-08-19T10:33:39;4.45;;;2.30;;
23230;SDS011;11784;49.818;8.632;2022-08-19T10:36:15;2.20;;;1.63;;
23230;SDS011;11784;49.818;8.632;2022-08-19T10:38:45;2.90;;;1.60;;
23230;SDS011;11784;49.818;8.632;2022-08-19T10:41:16;2.35;;;1.52;;
23230;SDS011;11784;49.818;8.632;2022-08-19T10:43:44;3.08;;;1.92;;
23230;SDS011;11784;49.818;8.632;2022-08-19T10:46:11;4.25;;;2.22;;
23230;SDS011;11784;49.818;8.632;2022-08-19T10:48:39;3.35;;;2.20;;
23230;SDS011;11784;49.818;8.632;2022-08-19T10:51:05;4.18;;;2.25;;
23230;SDS011;11784;49.818;8.632;2022-08-19T10:53:50;4.20;;;2.42;;
23230;SDS011;11784;49.818;8.632;2022-08-19T10:56:16;5.32;;;2.45;;
23230;SDS011;11784;49.818;8.632;2022-08-19T10:59:01;4.45;;;2.42;;
23230;SDS011;11784;49.818;8.632;2022-08-19T11:01:28;4.47;;;2.25;;
23230;SDS011;11784;49.818;8.632;2022-08-19T11:03:54;5.68;;;2.00;;
23230;SDS011;11784;49.818;8.632;2022-08-19T11:06:22;4.20;;;2.45;;
23230;SDS011;11784;49.818;8.632;2022-08-19T11:08:49;6.13;;;2.45;;
23230;SDS011;11784;49.818;8.632;2022-08-19T11:11:16;7.80;;;3.03;;
23230;SDS011;11784;49.818;8.632;2022-08-19T11:13:42;4.90;;;2.55;;
23230;SDS011;11784;49.818;8.632;2022-08-19T11:16:14;6.35;;;2.50;;
23230;SDS011;11784;49.818;8.632;2022-08-19T11:18:43;3.92;;;2.50;;
23230;SDS011;11784;49.818;8.632;2022-08-19T11:21:15;5.00;;;2.10;;
23230;SDS011;11784;49.818;8.632;2022-08-19T11:23:49;6.00;;;2.58;;
23230;SDS011;11784;49.818;8.632;2022-08-19T11:26:17;4.85;;;2.88;;
23230;SDS011;11784;49.818;8.632;2022-08-19T11:28:44;4.93;;;2.83;;
23230;SDS011;11784;49.818;8.632;2022-08-19T11:31:14;6.13;;;2.40;;
23230;SDS011;11784;49.818;8.632;2022-08-19T11:33:43;3.45;;;2.10;;
23230;SDS011;11784;49.818;8.632;2022-08-19T11:36:08;3.75;;;2.20;;
23230;SDS011;11784;49.818;8.632;2022-08-19T11:38:35;5.38;;;2.63;;
23230;SDS011;11784;49.818;8.632;2022-08-19T11:41:02;4.47;;;2.75;;
23230;SDS011;11784;49.818;8.632;2022-08-19T11:45:58;4.75;;;3.05;;
23230;SDS011;11784;49.818;8.632;2022-08-19T11:48:24;4.78;;;2.78;;
23230;SDS011;11784;49.818;8.632;2022-08-19T11:50:53;5.43;;;3.38;;
23230;SDS011;11784;49.818;8.632;2022-08-19T11:53:20;6.63;;;2.83;;
23230;SDS011;11784;49.818;8.632;2022-08-19T11:55:47;5.20;;;3.00;;
23230;SDS011;11784;49.818;8.632;2022-08-19T11:58:13;5.32;;;3.15;;
23230;SDS011;11784;49.818;8.632;2022-08-19T12:00:41;4.97;;;2.88;;
23230;SDS011;11784;49.818;8.632;2022-08-19T12:03:07;4.97;;;3.22;;
23230;SDS011;11784;49.818;8.632;2022-08-19T12:05:35;5.88;;;3.03;;
23230;SDS011;11784;49.818;8.632;2022-08-19T12:08:01;4.55;;;3.13;;
23230;SDS011;11784;49.818;8.632;2022-08-19T12:10:27;6.03;;;3.03;;
23230;SDS011;11784;49.818;8.632;2022-08-19T12:12:53;4.00;;;2.50;;
23230;SDS011;11784;49.818;8.632;2022-08-19T12:15:18;3.90;;;2.35;;
23230;SDS011;11784;49.818;8.632;2022-08-19T12:17:44;4.43;;;2.67;;
23230;SDS011;11784;49.818;8.632;2022-08-19T12:20:10;2.97;;;2.08;;
23230;SDS011;11784;49.818;8.632;2022-08-19T12:22:38;4.95;;;2.80;;
23230;SDS011;11784;49.818;8.632;2022-08-19T12:25:06;5.40;;;3.13;;
23230;SDS011;11784;49.818;8.632;2022-08-19T12:27:33;4.35;;;2.70;;
23230;SDS011;11784;49.818;8.632;2022-08-19T12:30:00;4.82;;;2.90;;
23230;SDS011;11784;49.818;8.632;2022-08-19T12:32:27;5.10;;;2.72;;
23230;SDS011;11784;49.818;8.632;2022-08-19T12:34:53;5.53;;;3.05;;
23230;SDS011;11784;49.818;8.632;2022-08-19T12:37:19;5.15;;;2.95;;
23230;SDS011;11784;49.818;8.632;2022-08-19T12:39:44;6.65;;;2.80;;
23230;SDS011;11784;49.818;8.632;2022-08-19T12:42:11;5.03;;;2.50;;
23230;SDS011;11784;49.818;8.632;2022-08-19T12:44:39;3.47;;;2.40;;
23230;SDS011;11784;49.818;8.632;2022-08-19T12:47:07;3.35;;;2.53;;
23230;SDS011;11784;49.818;8.632;2022-08-19T12:49:35;4.45;;;2.35;;
23230;SDS011;11784;49.818;8.632;2022-08-19T12:52:02;5.82;;;2.80;;
23230;SDS011;11784;49.818;8.632;2022-08-19T12:54:29;4.07;;;2.08;;
23230;SDS011;11784;49.818;8.632;2022-08-19T12:56:55;4.50;;;2.45;;
23230;SDS011;11784;49.818;8.632;2022-08-19T12:59:24;3.65;;;2.30;;
23230;SDS011;11784;49.818;8.632;2022-08-19T13:01:50;3.65;;;2.38;;
23230;SDS011;11784;49.818;8.632;2022-08-19T13:04:16;3.53;;;1.90;;
23230;SDS011;11784;49.818;8.632;2022-08-19T13:06:41;3.42;;;2.05;;
23230;SDS011;11784;49.818;8.632;2022-08-19T13:09:08;3.20;;;2.00;;
23230;SDS011;11784;49.818;8.632;2022-08-19T13:11:34;2.38;;;1.75;;
23230;SDS011;11784;49.818;8.632;2022-08-19T13:14:01;2.58;;;1.60;;
23230;SDS011;11784;49.818;8.632;2022-08-19T13:16:28;1.95;;;1.42;;
23230;SDS011;11784;49.818;8.632;2022-08-19T13:18:55;4.05;;;1.80;;
23230;SDS011;11784;49.818;8.632;2022-08-19T13:21:23;2.40;;;1.83;;
23230;SDS011;11784;49.818;8.632;2022-08-19T13:23:52;2.37;;;1.40;;
23230;SDS011;11784;49.818;8.632;2022-08-19T13:26:18;2.05;;;1.45;;
23230;SDS011;11784;49.818;8.632;2022-08-19T13:28:44;2.80;;;1.73;;
23230;SDS011;11784;49.818;8.632;2022-08-19T13:31:30;1.50;;;1.20;;
23230;SDS011;11784;49.818;8.632;2022-08-19T13:34:17;2.30;;;1.35;;
23230;SDS011;11784;49.818;8.632;2022-08-19T13:36:44;1.95;;;1.23;;
23230;SDS011;11784;49.818;8.632;2022-08-19T13:39:10;2.63;;;1.52;;
23230;SDS011;11784;49.818;8.632;2022-08-19T13:41:37;2.13;;;1.60;;
23230;SDS011;11784;49.818;8.632;2022-08-19T13:44:12;2.08;;;1.42;;
23230;SDS011;11784;49.818;8.632;2022-08-19T13:46:40;3.80;;;1.80;;
23230;SDS011;11784;49.818;8.632;2022-08-19T13:49:09;2.78;;;1.75;;
23230;SDS011;11784;49.818;8.632;2022-08-19T13:51:35;3.17;;;1.58;;
23230;SDS011;11784;49.818;8.632;2022-08-19T13:54:02;2.85;;;1.52;;
23230;SDS011;11784;49.818;8.632;2022-08-19T13:56:27;6.13;;;1.42;;
23230;SDS011;11784;49.818;8.632;2022-08-19T13:58:53;2.13;;;1.23;;
23230;SDS011;11784;49.818;8.632;2022-08-19T14:01:22;2.72;;;1.63;;
23230;SDS011;11784;49.818;8.632;2022-08-19T14:03:48;4.05;;;1.40;;
23230;SDS011;11784;49.818;8.632;2022-08-19T14:06:13;2.97;;;1.55;;
23230;SDS011;11784;49.818;8.632;2022-08-19T14:08:39;2.53;;;1.45;;
23230;SDS011;11784;49.818;8.632;2022-08-19T14:11:06;1.67;;;1.20;;
23230;SDS011;11784;49.818;8.632;2022-08-19T14:13:42;1.98;;;1.50;;
23230;SDS011;11784;49.818;8.632;2022-08-19T14:16:11;1.55;;;1.10;;
23230;SDS011;11784;49.818;8.632;2022-08-19T14:18:39;1.55;;;1.02;;
23230;SDS011;11784;49.818;8.632;2022-08-19T14:21:05;2.25;;;1.05;;
23230;SDS011;11784;49.818;8.632;2022-08-19T14:23:31;1.40;;;1.25;;
23230;SDS011;11784;49.818;8.632;2022-08-19T14:26:08;1.63;;;1.10;;
23230;SDS011;11784;49.818;8.632;2022-08-19T14:28:36;3.10;;;1.20;;
23230;SDS011;11784;49.818;8.632;2022-08-19T14:31:02;1.52;;;1.20;;
23230;SDS011;11784;49.818;8.632;2022-08-19T14:33:28;1.35;;;1.00;;
23230;SDS011;11784;49.818;8.632;2022-08-19T14:35:53;1.25;;;1.00;;
23230;SDS011;11784;49.818;8.632;2022-08-19T14:38:19;1.60;;;1.05;;
23230;SDS011;11784;49.818;8.632;2022-08-19T14:40:45;1.55;;;1.20;;
23230;SDS011;11784;49.818;8.632;2022-08-19T14:43:11;1.95;;;1.45;;
23230;SDS011;11784;49.818;8.632;2022-08-19T14:45:38;2.50;;;1.48;;
23230;SDS011;11784;49.818;8.632;2022-08-19T14:48:05;2.42;;;1.50;;
23230;SDS011;11784;49.818;8.632;2022-08-19T14:50:33;2.00;;;1.50;;
23230;SDS011;11784;49.818;8.632;2022-08-19T14:53:00;1.92;;;1.25;;
23230;SDS011;11784;49.818;8.632;2022-08-19T14:55:28;2.95;;;1.30;;
23230;SDS011;11784;49.818;8.632;2022-08-19T14:57:53;2.45;;;1.13;;
23230;SDS011;11784;49.818;8.632;2022-08-19T15:00:19;3.20;;;1.33;;
23230;SDS011;11784;49.818;8.632;2022-08-19T15:02:45;3.00;;;1.70;;
23230;SDS011;11784;49.818;8.632;2022-08-19T15:05:11;2.28;;;1.55;;
23230;SDS011;11784;49.818;8.632;2022-08-19T15:07:37;4.07;;;1.52;;